sensor_id;sensor_type;location;lat;lon;timestamp;pressure;altitude;pressure_sealevel;temperature;humidity
13553;BME280;6847;48.830;9.116;2023-04-07T00:00:38;97918.97;;;10.43;44.24
13553;BME280;6847;48.830;9.116;2023-04-07T00:03:24;97914.91;;;10.45;44.36
13553;BME280;6847;48.830;9.116;2023-04-07T00:06:16;97913.25;;;10.49;44.28
13553;BME280;6847;48.830;9.116;2023-04-07T00:09:02;97908.94;;;10.53;44.62
13553;BME280;6847;48.830;9.116;2023-04-07T00:11:48;97870.59;;;10.26;44.16
13553;BME280;6847;48.830;9.116;2023-04-07T00:14:34;97904.34;;;10.54;44.59
13553;BME280;6847;48.830;9.116;2023-04-07T00:17:20;97902.16;;;10.56;44.47
13553;BME280;6847;48.830;9.116;2023-04-07T00:20:06;97901.84;;;10.62;44.29
13553;BME280;6847;48.830;9.116;2023-04-07T00:22:53;97899.13;;;10.67;45.01
13553;BME280;6847;48.830;9.116;2023-04-07T00:25:54;97896.41;;;10.72;44.37
13553;BME280;6847;48.830;9.116;2023-04-07T00:28:40;97883.94;;;10.71;44.65
13553;BME280;6847;48.830;9.116;2023-04-07T00:31:26;97891.47;;;10.80;44.93
13553;BME280;6847;48.830;9.116;2023-04-07T00:34:11;97888.50;;;10.81;44.76
13553;BME280;6847;48.830;9.116;2023-04-07T00:36:56;97877.44;;;10.72;44.90
13553;BME280;6847;48.830;9.116;2023-04-07T00:39:45;97861.78;;;10.59;44.89
13553;BME280;6847;48.830;9.116;2023-04-07T00:42:32;97844.56;;;10.40;44.94
13553;BME280;6847;48.830;9.116;2023-04-07T00:45:17;97870.50;;;10.56;45.61
13553;BME280;6847;48.830;9.116;2023-04-07T00:48:03;97872.66;;;10.54;45.71
13553;BME280;6847;48.830;9.116;2023-04-07T00:50:48;97869.41;;;10.52;45.69
13553;BME280;6847;48.830;9.116;2023-04-07T00:53:33;97861.88;;;10.44;45.92
13553;BME280;6847;48.830;9.116;2023-04-07T00:56:19;97867.28;;;10.44;45.81
13553;BME280;6847;48.830;9.116;2023-04-07T00:59:05;97855.09;;;10.47;46.11
13553;BME280;6847;48.830;9.116;2023-04-07T01:01:56;97841.34;;;10.38;46.25
13553;BME280;6847;48.830;9.116;2023-04-07T01:04:50;97848.34;;;10.39;46.02
13553;BME280;6847;48.830;9.116;2023-04-07T01:07:41;97831.59;;;10.32;46.26
13553;BME280;6847;48.830;9.116;2023-04-07T01:10:34;97829.97;;;10.36;46.20
13553;BME280;6847;48.830;9.116;2023-04-07T01:13:23;97828.91;;;10.37;46.50
13553;BME280;6847;48.830;9.116;2023-04-07T01:16:17;97827.47;;;10.50;46.29
13553;BME280;6847;48.830;9.116;2023-04-07T01:19:14;97832.31;;;10.53;46.34
13553;BME280;6847;48.830;9.116;2023-04-07T01:22:02;97827.72;;;10.53;46.18
13553;BME280;6847;48.830;9.116;2023-04-07T01:25:09;97821.47;;;10.58;46.27
13553;BME280;6847;48.830;9.116;2023-04-07T01:28:40;97821.19;;;10.59;46.78
13553;BME280;6847;48.830;9.116;2023-04-07T01:31:30;97799.59;;;10.49;46.63
13553;BME280;6847;48.830;9.116;2023-04-07T01:34:19;97814.16;;;10.58;46.37
13553;BME280;6847;48.830;9.116;2023-04-07T01:37:09;97810.34;;;10.59;46.90
13553;BME280;6847;48.830;9.116;2023-04-07T01:39:55;97798.78;;;10.49;46.86
13553;BME280;6847;48.830;9.116;2023-04-07T01:42:41;97812.50;;;10.62;46.38
13553;BME280;6847;48.830;9.116;2023-04-07T01:45:27;97806.28;;;10.62;46.59
13553;BME280;6847;48.830;9.116;2023-04-07T01:48:17;97805.75;;;10.60;47.10
13553;BME280;6847;48.830;9.116;2023-04-07T01:51:03;97691.06;;;9.91;46.70
13553;BME280;6847;48.830;9.116;2023-04-07T01:53:49;97800.34;;;10.60;46.72
13553;BME280;6847;48.830;9.116;2023-04-07T01:56:34;97797.91;;;10.58;46.86
13553;BME280;6847;48.830;9.116;2023-04-07T01:59:19;97798.97;;;10.62;47.34
13553;BME280;6847;48.830;9.116;2023-04-07T02:02:07;97795.19;;;10.63;46.75
13553;BME280;6847;48.830;9.116;2023-04-07T02:04:55;97797.34;;;10.66;46.99
13553;BME280;6847;48.830;9.116;2023-04-07T02:07:48;97800.28;;;10.70;47.11
13553;BME280;6847;48.830;9.116;2023-04-07T02:10:36;97798.38;;;10.70;47.05
13553;BME280;6847;48.830;9.116;2023-04-07T02:13:22;97784.28;;;10.73;47.18
13553;BME280;6847;48.830;9.116;2023-04-07T02:16:08;97791.88;;;10.77;47.02
13553;BME280;6847;48.830;9.116;2023-04-07T02:18:55;97772.72;;;10.63;47.25
13553;BME280;6847;48.830;9.116;2023-04-07T02:21:43;97747.13;;;10.40;47.79
13553;BME280;6847;48.830;9.116;2023-04-07T02:24:29;97759.03;;;10.44;47.94
13553;BME280;6847;48.830;9.116;2023-04-07T02:27:14;97777.09;;;10.54;47.93
13553;BME280;6847;48.830;9.116;2023-04-07T02:29:59;97780.56;;;10.59;47.70
13553;BME280;6847;48.830;9.116;2023-04-07T02:32:45;97776.78;;;10.65;47.79
13553;BME280;6847;48.830;9.116;2023-04-07T02:35:40;97772.66;;;10.73;47.82
13553;BME280;6847;48.830;9.116;2023-04-07T02:38:27;97769.66;;;10.74;47.86
13553;BME280;6847;48.830;9.116;2023-04-07T02:41:12;97768.06;;;10.73;47.55
13553;BME280;6847;48.830;9.116;2023-04-07T02:44:00;97771.28;;;10.75;47.76
13553;BME280;6847;48.830;9.116;2023-04-07T02:46:45;97771.50;;;10.79;47.92
13553;BME280;6847;48.830;9.116;2023-04-07T02:49:30;97758.25;;;10.77;47.78
13553;BME280;6847;48.830;9.116;2023-04-07T02:52:15;97758.19;;;10.88;47.92
13553;BME280;6847;48.830;9.116;2023-04-07T02:55:05;97752.22;;;10.91;47.42
13553;BME280;6847;48.830;9.116;2023-04-07T02:57:51;97753.28;;;10.95;48.05
13553;BME280;6847;48.830;9.116;2023-04-07T03:00:36;97753.28;;;10.95;47.56
13553;BME280;6847;48.830;9.116;2023-04-07T03:03:21;97739.47;;;10.91;48.06
13553;BME280;6847;48.830;9.116;2023-04-07T03:06:06;97749.16;;;11.02;48.01
13553;BME280;6847;48.830;9.116;2023-04-07T03:08:51;97752.13;;;11.01;47.46
13553;BME280;6847;48.830;9.116;2023-04-07T03:11:38;97741.28;;;11.01;47.69
13553;BME280;6847;48.830;9.116;2023-04-07T03:14:24;97751.31;;;11.00;47.72
13553;BME280;6847;48.830;9.116;2023-04-07T03:17:10;97749.16;;;10.97;47.69
13553;BME280;6847;48.830;9.116;2023-04-07T03:19:55;97739.72;;;10.95;48.13
13553;BME280;6847;48.830;9.116;2023-04-07T03:22:40;97747.28;;;10.98;48.48
13553;BME280;6847;48.830;9.116;2023-04-07T03:25:27;97734.06;;;10.91;47.91
13553;BME280;6847;48.830;9.116;2023-04-07T03:28:13;97734.03;;;10.96;48.19
13553;BME280;6847;48.830;9.116;2023-04-07T03:30:59;97734.81;;;10.97;47.97
13553;BME280;6847;48.830;9.116;2023-04-07T03:33:44;97740.78;;;10.99;48.54
13553;BME280;6847;48.830;9.116;2023-04-07T03:36:29;97734.81;;;10.97;48.38
13553;BME280;6847;48.830;9.116;2023-04-07T03:39:15;97735.13;;;10.95;47.93
13553;BME280;6847;48.830;9.116;2023-04-07T03:42:03;97663.69;;;10.52;48.00
13553;BME280;6847;48.830;9.116;2023-04-07T03:44:50;97649.16;;;10.43;48.33
13553;BME280;6847;48.830;9.116;2023-04-07T03:47:36;97727.00;;;10.95;48.16
13553;BME280;6847;48.830;9.116;2023-04-07T03:50:22;97726.69;;;10.97;48.66
13553;BME280;6847;48.830;9.116;2023-04-07T03:53:07;97725.59;;;10.98;48.68
13553;BME280;6847;48.830;9.116;2023-04-07T03:55:52;97727.22;;;10.99;48.16
13553;BME280;6847;48.830;9.116;2023-04-07T03:58:38;97721.00;;;10.98;48.84
13553;BME280;6847;48.830;9.116;2023-04-07T04:01:27;97714.78;;;10.98;48.88
13553;BME280;6847;48.830;9.116;2023-04-07T04:04:12;97719.63;;;11.01;48.54
13553;BME280;6847;48.830;9.116;2023-04-07T04:06:57;97717.44;;;11.03;48.34
13553;BME280;6847;48.830;9.116;2023-04-07T04:09:42;97715.09;;;10.91;48.50
13553;BME280;6847;48.830;9.116;2023-04-07T04:12:27;97727.22;;;10.99;48.27
13553;BME280;6847;48.830;9.116;2023-04-07T04:15:13;97719.38;;;10.97;48.34
13553;BME280;6847;48.830;9.116;2023-04-07T04:17:59;97713.75;;;10.94;48.98
13553;BME280;6847;48.830;9.116;2023-04-07T04:20:48;97704.59;;;10.85;48.96
13553;BME280;6847;48.830;9.116;2023-04-07T04:23:33;97658.75;;;10.59;49.15
13553;BME280;6847;48.830;9.116;2023-04-07T04:26:21;97708.63;;;10.87;48.87
13553;BME280;6847;48.830;9.116;2023-04-07T04:29:09;97690.53;;;10.83;48.61
13553;BME280;6847;48.830;9.116;2023-04-07T04:31:55;97701.63;;;10.86;48.52
13553;BME280;6847;48.830;9.116;2023-04-07T04:34:42;97706.22;;;10.86;48.83
13553;BME280;6847;48.830;9.116;2023-04-07T04:37:30;97704.59;;;10.85;49.13
13553;BME280;6847;48.830;9.116;2023-04-07T04:40:16;97708.41;;;10.84;49.23
13553;BME280;6847;48.830;9.116;2023-04-07T04:43:01;97711.09;;;10.84;49.06
13553;BME280;6847;48.830;9.116;2023-04-07T04:45:49;97716.25;;;10.85;48.76
13553;BME280;6847;48.830;9.116;2023-04-07T04:48:37;97711.63;;;10.86;49.29
13553;BME280;6847;48.830;9.116;2023-04-07T04:51:23;97708.94;;;10.86;49.30
13553;BME280;6847;48.830;9.116;2023-04-07T04:54:12;97717.88;;;10.86;49.43
13553;BME280;6847;48.830;9.116;2023-04-07T04:56:57;97707.91;;;10.77;49.37
13553;BME280;6847;48.830;9.116;2023-04-07T04:59:45;97720.56;;;10.86;49.02
13553;BME280;6847;48.830;9.116;2023-04-07T05:02:30;97719.75;;;10.86;49.69
13553;BME280;6847;48.830;9.116;2023-04-07T05:05:16;97712.13;;;10.88;49.59
13553;BME280;6847;48.830;9.116;2023-04-07T05:08:03;97669.38;;;10.56;49.15
13553;BME280;6847;48.830;9.116;2023-04-07T05:10:49;97720.25;;;10.93;49.14
13553;BME280;6847;48.830;9.116;2023-04-07T05:16:53;97719.16;;;10.94;49.77
13553;BME280;6847;48.830;9.116;2023-04-07T05:19:38;97717.53;;;10.93;49.31
13553;BME280;6847;48.830;9.116;2023-04-07T05:22:26;97704.59;;;10.85;49.65
13553;BME280;6847;48.830;9.116;2023-04-07T05:25:13;97714.56;;;10.89;49.22
13553;BME280;6847;48.830;9.116;2023-04-07T05:27:58;97715.09;;;10.91;48.76
13553;BME280;6847;48.830;9.116;2023-04-07T05:34:06;97724.56;;;10.94;49.25
13553;BME280;6847;48.830;9.116;2023-04-07T05:36:56;97722.63;;;10.99;49.76
13553;BME280;6847;48.830;9.116;2023-04-07T05:39:41;97722.88;;;11.03;49.09
13553;BME280;6847;48.830;9.116;2023-04-07T05:42:27;97674.31;;;10.77;49.92
13553;BME280;6847;48.830;9.116;2023-04-07T05:45:13;97722.72;;;11.18;49.92
13553;BME280;6847;48.830;9.116;2023-04-07T05:47:58;97718.88;;;11.24;49.02
13553;BME280;6847;48.830;9.116;2023-04-07T05:50:46;97719.91;;;11.28;49.64
13553;BME280;6847;48.830;9.116;2023-04-07T05:53:31;97725.31;;;11.33;49.43
13553;BME280;6847;48.830;9.116;2023-04-07T05:56:16;97718.19;;;11.37;49.54
13553;BME280;6847;48.830;9.116;2023-04-07T05:59:03;97720.88;;;11.42;49.28
13553;BME280;6847;48.830;9.116;2023-04-07T06:01:48;97718.09;;;11.47;49.35
13553;BME280;6847;48.830;9.116;2023-04-07T06:04:36;97460.72;;;9.89;49.64
13553;BME280;6847;48.830;9.116;2023-04-07T06:07:53;97338.69;;;9.04;49.40
13553;BME280;6847;48.830;9.116;2023-04-07T06:11:30;97309.03;;;8.99;49.56
13553;BME280;6847;48.830;9.116;2023-04-07T06:18:14;97259.81;;;8.73;49.14
13553;BME280;6847;48.830;9.116;2023-04-07T06:21:00;97664.97;;;11.46;49.80
13553;BME280;6847;48.830;9.116;2023-04-07T06:23:45;97722.91;;;11.84;49.36
13553;BME280;6847;48.830;9.116;2023-04-07T06:26:30;97718.78;;;11.87;49.53
13553;BME280;6847;48.830;9.116;2023-04-07T06:29:16;97696.63;;;11.80;49.86
13553;BME280;6847;48.830;9.116;2023-04-07T06:32:03;97719.63;;;12.06;49.54
13553;BME280;6847;48.830;9.116;2023-04-07T06:34:52;97722.50;;;12.15;49.10
13553;BME280;6847;48.830;9.116;2023-04-07T06:37:37;97724.34;;;12.19;49.72
13553;BME280;6847;48.830;9.116;2023-04-07T06:40:27;97703.81;;;12.13;49.38
13553;BME280;6847;48.830;9.116;2023-04-07T06:43:13;97719.81;;;12.34;49.55
13553;BME280;6847;48.830;9.116;2023-04-07T06:45:58;97724.06;;;12.40;49.11
13553;BME280;6847;48.830;9.116;2023-04-07T06:48:44;97715.41;;;12.38;49.20
13553;BME280;6847;48.830;9.116;2023-04-07T06:51:30;97719.06;;;12.47;50.22
13553;BME280;6847;48.830;9.116;2023-04-07T06:54:18;97702.34;;;12.40;49.52
13553;BME280;6847;48.830;9.116;2023-04-07T06:57:04;97716.31;;;12.52;49.78
13553;BME280;6847;48.830;9.116;2023-04-07T06:59:55;97709.25;;;12.51;49.67
13553;BME280;6847;48.830;9.116;2023-04-07T07:02:43;97714.41;;;12.52;50.00
13553;BME280;6847;48.830;9.116;2023-04-07T07:05:31;97721.13;;;12.55;49.67
13553;BME280;6847;48.830;9.116;2023-04-07T07:08:18;97716.72;;;12.59;49.43
13553;BME280;6847;48.830;9.116;2023-04-07T07:11:04;97719.34;;;12.64;48.80
13553;BME280;6847;48.830;9.116;2023-04-07T07:13:52;97703.69;;;12.61;49.42
13553;BME280;6847;48.830;9.116;2023-04-07T07:16:42;97717.00;;;12.76;49.18
13553;BME280;6847;48.830;9.116;2023-04-07T07:19:27;97718.75;;;12.86;49.36
13553;BME280;6847;48.830;9.116;2023-04-07T07:22:15;97713.69;;;12.98;49.77
13553;BME280;6847;48.830;9.116;2023-04-07T07:25:03;97691.72;;;12.94;49.02
13553;BME280;6847;48.830;9.116;2023-04-07T07:27:48;97724.25;;;13.32;48.32
13553;BME280;6847;48.830;9.116;2023-04-07T07:30:38;97720.97;;;13.62;48.85
13553;BME280;6847;48.830;9.116;2023-04-07T07:33:23;97721.94;;;14.98;46.48
13553;BME280;6847;48.830;9.116;2023-04-07T07:36:09;97728.72;;;18.59;41.18
13553;BME280;6847;48.830;9.116;2023-04-07T07:38:55;97720.81;;;21.86;37.96
13553;BME280;6847;48.830;9.116;2023-04-07T07:41:41;97738.72;;;24.36;36.13
13553;BME280;6847;48.830;9.116;2023-04-07T07:44:26;97752.16;;;26.24;35.19
13553;BME280;6847;48.830;9.116;2023-04-07T07:47:11;97743.38;;;27.31;35.17
13553;BME280;6847;48.830;9.116;2023-04-07T07:49:57;97729.31;;;28.35;34.82
13553;BME280;6847;48.830;9.116;2023-04-07T07:52:43;97755.97;;;28.79;35.05
13553;BME280;6847;48.830;9.116;2023-04-07T07:55:28;97742.06;;;28.40;35.74
13553;BME280;6847;48.830;9.116;2023-04-07T07:58:19;97753.53;;;28.70;35.71
13553;BME280;6847;48.830;9.116;2023-04-07T08:01:04;97744.94;;;29.66;34.72
13553;BME280;6847;48.830;9.116;2023-04-07T08:03:49;97760.16;;;30.69;34.45
13553;BME280;6847;48.830;9.116;2023-04-07T08:06:37;97762.09;;;31.16;34.18
13553;BME280;6847;48.830;9.116;2023-04-07T08:09:22;97750.56;;;30.25;35.40
13553;BME280;6847;48.830;9.116;2023-04-07T08:12:07;97760.63;;;30.12;35.51
13553;BME280;6847;48.830;9.116;2023-04-07T08:14:53;97755.31;;;29.62;35.45
13553;BME280;6847;48.830;9.116;2023-04-07T08:17:39;97759.56;;;28.48;36.74
13553;BME280;6847;48.830;9.116;2023-04-07T08:20:25;97752.00;;;26.50;38.77
13553;BME280;6847;48.830;9.116;2023-04-07T08:23:11;97749.31;;;25.76;39.23
13553;BME280;6847;48.830;9.116;2023-04-07T08:25:56;97715.00;;;24.91;39.30
13553;BME280;6847;48.830;9.116;2023-04-07T08:28:42;97763.47;;;26.45;37.24
13553;BME280;6847;48.830;9.116;2023-04-07T08:31:28;97763.25;;;27.37;35.44
13553;BME280;6847;48.830;9.116;2023-04-07T08:34:14;97770.16;;;25.29;37.86
13553;BME280;6847;48.830;9.116;2023-04-07T08:36:59;97742.78;;;23.54;39.93
13553;BME280;6847;48.830;9.116;2023-04-07T08:39:45;97756.00;;;23.06;40.18
13553;BME280;6847;48.830;9.116;2023-04-07T08:42:34;97761.06;;;22.85;40.10
13553;BME280;6847;48.830;9.116;2023-04-07T08:45:21;97760.72;;;23.44;38.96
13553;BME280;6847;48.830;9.116;2023-04-07T08:48:15;97775.06;;;25.76;35.97
13553;BME280;6847;48.830;9.116;2023-04-07T08:51:04;97769.31;;;25.25;36.53
13553;BME280;6847;48.830;9.116;2023-04-07T08:53:57;97761.53;;;24.29;37.74
13553;BME280;6847;48.830;9.116;2023-04-07T08:56:44;97688.34;;;23.35;37.99
13553;BME280;6847;48.830;9.116;2023-04-07T08:59:30;97747.16;;;23.55;37.74
13553;BME280;6847;48.830;9.116;2023-04-07T09:02:17;97748.84;;;25.33;35.34
13553;BME280;6847;48.830;9.116;2023-04-07T09:05:07;97761.72;;;27.53;32.77
13553;BME280;6847;48.830;9.116;2023-04-07T09:07:56;97774.47;;;29.50;31.12
13553;BME280;6847;48.830;9.116;2023-04-07T09:10:43;97775.69;;;30.25;30.82
13553;BME280;6847;48.830;9.116;2023-04-07T09:13:28;97754.88;;;30.33;30.69
13553;BME280;6847;48.830;9.116;2023-04-07T09:16:14;97756.63;;;30.09;31.28
13553;BME280;6847;48.830;9.116;2023-04-07T09:19:00;97779.63;;;31.24;30.42
13553;BME280;6847;48.830;9.116;2023-04-07T09:21:48;97772.25;;;30.59;31.07
13553;BME280;6847;48.830;9.116;2023-04-07T09:24:34;97767.50;;;28.56;32.88
13553;BME280;6847;48.830;9.116;2023-04-07T09:27:20;97757.13;;;28.07;33.44
13553;BME280;6847;48.830;9.116;2023-04-07T09:30:12;97770.63;;;28.05;33.46
13553;BME280;6847;48.830;9.116;2023-04-07T09:32:59;97772.16;;;27.74;33.79
13553;BME280;6847;48.830;9.116;2023-04-07T09:35:50;97772.16;;;26.95;34.03
13553;BME280;6847;48.830;9.116;2023-04-07T09:38:38;97761.22;;;25.76;35.08
13553;BME280;6847;48.830;9.116;2023-04-07T09:41:27;97768.28;;;24.54;36.27
13553;BME280;6847;48.830;9.116;2023-04-07T09:44:13;97774.91;;;23.43;37.32
13553;BME280;6847;48.830;9.116;2023-04-07T09:47:01;97777.66;;;22.53;37.85
13553;BME280;6847;48.830;9.116;2023-04-07T09:49:51;97761.63;;;21.81;38.18
13553;BME280;6847;48.830;9.116;2023-04-07T09:52:49;97771.56;;;21.14;38.58
13553;BME280;6847;48.830;9.116;2023-04-07T09:55:36;97764.53;;;20.64;38.68
13553;BME280;6847;48.830;9.116;2023-04-07T09:58:24;97766.16;;;20.41;38.54
13553;BME280;6847;48.830;9.116;2023-04-07T10:01:09;97733.03;;;20.61;37.81
13553;BME280;6847;48.830;9.116;2023-04-07T10:03:57;97762.72;;;22.23;35.74
13553;BME280;6847;48.830;9.116;2023-04-07T10:06:44;97766.19;;;23.41;34.37
13553;BME280;6847;48.830;9.116;2023-04-07T10:09:31;97762.63;;;25.60;32.06
13553;BME280;6847;48.830;9.116;2023-04-07T10:12:18;97768.94;;;27.58;30.19
13553;BME280;6847;48.830;9.116;2023-04-07T10:15:05;97777.00;;;29.01;29.61
13553;BME280;6847;48.830;9.116;2023-04-07T10:17:52;97760.63;;;27.76;31.08
13553;BME280;6847;48.830;9.116;2023-04-07T10:20:40;97764.41;;;26.19;33.00
13553;BME280;6847;48.830;9.116;2023-04-07T10:23:38;97766.03;;;24.90;34.43
13553;BME280;6847;48.830;9.116;2023-04-07T10:26:29;97753.66;;;23.85;35.58
13553;BME280;6847;48.830;9.116;2023-04-07T10:29:19;97760.50;;;22.95;36.30
13553;BME280;6847;48.830;9.116;2023-04-07T10:32:09;97750.97;;;21.95;36.85
13553;BME280;6847;48.830;9.116;2023-04-07T10:34:58;97752.94;;;20.83;37.44
13553;BME280;6847;48.830;9.116;2023-04-07T10:38:08;97745.72;;;19.93;38.03
13553;BME280;6847;48.830;9.116;2023-04-07T10:40:55;97736.28;;;19.70;37.96
13553;BME280;6847;48.830;9.116;2023-04-07T10:43:40;97753.03;;;19.77;37.09
13553;BME280;6847;48.830;9.116;2023-04-07T10:50:19;97756.31;;;19.37;37.35
13553;BME280;6847;48.830;9.116;2023-04-07T10:53:06;97744.91;;;18.94;37.42
13553;BME280;6847;48.830;9.116;2023-04-07T10:55:53;97686.38;;;18.19;37.82
13553;BME280;6847;48.830;9.116;2023-04-07T10:58:39;97752.25;;;18.31;37.81
13553;BME280;6847;48.830;9.116;2023-04-07T11:01:29;97742.09;;;17.93;37.98
13553;BME280;6847;48.830;9.116;2023-04-07T11:04:18;97699.09;;;17.38;38.32
13553;BME280;6847;48.830;9.116;2023-04-07T11:07:06;97739.94;;;17.44;38.35
13553;BME280;6847;48.830;9.116;2023-04-07T11:10:07;97755.25;;;17.36;38.31
13553;BME280;6847;48.830;9.116;2023-04-07T11:13:02;97750.31;;;17.12;38.40
13553;BME280;6847;48.830;9.116;2023-04-07T11:15:49;97725.06;;;16.72;38.67
13553;BME280;6847;48.830;9.116;2023-04-07T11:18:35;97755.28;;;16.76;38.96
13553;BME280;6847;48.830;9.116;2023-04-07T11:21:21;97757.38;;;16.61;38.84
13553;BME280;6847;48.830;9.116;2023-04-07T11:24:30;97766.97;;;16.50;39.07
13553;BME280;6847;48.830;9.116;2023-04-07T11:27:17;97760.50;;;16.46;38.95
13553;BME280;6847;48.830;9.116;2023-04-07T11:30:07;97766.78;;;16.38;39.12
13553;BME280;6847;48.830;9.116;2023-04-07T11:32:53;97740.00;;;16.09;39.50
13553;BME280;6847;48.830;9.116;2023-04-07T11:35:46;97773.94;;;16.17;39.51
13553;BME280;6847;48.830;9.116;2023-04-07T11:38:41;97787.88;;;16.07;39.75
13553;BME280;6847;48.830;9.116;2023-04-07T11:41:31;97778.28;;;15.78;39.90
13553;BME280;6847;48.830;9.116;2023-04-07T11:44:19;97800.47;;;15.54;40.37
13553;BME280;6847;48.830;9.116;2023-04-07T11:47:08;97803.59;;;15.26;40.88
13553;BME280;6847;48.830;9.116;2023-04-07T11:49:53;97803.88;;;15.02;41.02
13553;BME280;6847;48.830;9.116;2023-04-07T11:52:42;97799.09;;;14.85;41.21
13553;BME280;6847;48.830;9.116;2023-04-07T11:55:27;97751.72;;;14.31;42.28
13553;BME280;6847;48.830;9.116;2023-04-07T11:58:17;97797.53;;;14.29;42.32
13553;BME280;6847;48.830;9.116;2023-04-07T12:01:06;97797.13;;;13.95;42.54
13553;BME280;6847;48.830;9.116;2023-04-07T12:03:56;97806.16;;;13.77;43.54
13553;BME280;6847;48.830;9.116;2023-04-07T12:06:42;97805.75;;;13.69;43.21
13553;BME280;6847;48.830;9.116;2023-04-07T12:09:30;97801.50;;;13.63;43.83
13553;BME280;6847;48.830;9.116;2023-04-07T12:12:24;97794.53;;;13.57;43.87
13553;BME280;6847;48.830;9.116;2023-04-07T12:15:14;97800.28;;;13.56;44.24
13553;BME280;6847;48.830;9.116;2023-04-07T12:18:00;97799.56;;;13.50;43.67
13553;BME280;6847;48.830;9.116;2023-04-07T12:20:46;97801.25;;;13.46;44.48
13553;BME280;6847;48.830;9.116;2023-04-07T12:23:37;97802.28;;;13.50;44.44
13553;BME280;6847;48.830;9.116;2023-04-07T12:26:23;97802.13;;;13.60;43.94
13553;BME280;6847;48.830;9.116;2023-04-07T12:29:11;97806.34;;;13.66;44.05
13553;BME280;6847;48.830;9.116;2023-04-07T12:31:58;97808.97;;;13.71;44.83
13553;BME280;6847;48.830;9.116;2023-04-07T12:34:46;97813.00;;;13.60;44.68
13553;BME280;6847;48.830;9.116;2023-04-07T12:37:32;97806.28;;;13.53;45.23
13553;BME280;6847;48.830;9.116;2023-04-07T12:40:17;97696.31;;;12.80;45.68
13553;BME280;6847;48.830;9.116;2023-04-07T12:43:03;97805.06;;;13.45;45.54
13553;BME280;6847;48.830;9.116;2023-04-07T12:45:49;97791.88;;;13.39;46.01
13553;BME280;6847;48.830;9.116;2023-04-07T12:48:39;97799.22;;;13.38;46.67
13553;BME280;6847;48.830;9.116;2023-04-07T12:51:26;97798.31;;;13.43;46.27
13553;BME280;6847;48.830;9.116;2023-04-07T12:54:12;97793.44;;;13.58;46.70
13553;BME280;6847;48.830;9.116;2023-04-07T12:56:57;97790.94;;;13.76;46.95
13553;BME280;6847;48.830;9.116;2023-04-07T12:59:45;97786.00;;;13.78;46.25
13553;BME280;6847;48.830;9.116;2023-04-07T13:02:32;97796.41;;;14.03;46.61
13553;BME280;6847;48.830;9.116;2023-04-07T13:05:22;97799.34;;;14.20;46.95
13553;BME280;6847;48.830;9.116;2023-04-07T13:08:07;97801.75;;;14.35;46.56
13553;BME280;6847;48.830;9.116;2023-04-07T13:10:54;97799.53;;;14.37;46.50
13553;BME280;6847;48.830;9.116;2023-04-07T13:13:40;97744.69;;;14.03;46.99
13553;BME280;6847;48.830;9.116;2023-04-07T13:16:27;97778.97;;;14.31;46.80
13553;BME280;6847;48.830;9.116;2023-04-07T13:19:12;97813.69;;;14.53;47.10
13553;BME280;6847;48.830;9.116;2023-04-07T13:21:59;97813.88;;;14.57;47.25
13553;BME280;6847;48.830;9.116;2023-04-07T13:24:45;97803.97;;;14.61;47.39
13553;BME280;6847;48.830;9.116;2023-04-07T13:27:31;97807.94;;;14.55;47.43
13553;BME280;6847;48.830;9.116;2023-04-07T13:30:16;97807.41;;;14.53;47.76
13553;BME280;6847;48.830;9.116;2023-04-07T13:33:01;97804.81;;;14.48;47.44
13553;BME280;6847;48.830;9.116;2023-04-07T13:35:47;97805.22;;;14.41;47.61
13553;BME280;6847;48.830;9.116;2023-04-07T13:38:38;97801.16;;;14.38;47.82
13553;BME280;6847;48.830;9.116;2023-04-07T13:41:26;97798.94;;;14.40;47.99
13553;BME280;6847;48.830;9.116;2023-04-07T13:44:12;97800.28;;;14.43;47.64
13553;BME280;6847;48.830;9.116;2023-04-07T13:46:57;97795.13;;;14.41;47.99
13553;BME280;6847;48.830;9.116;2023-04-07T13:49:43;97469.06;;;12.30;48.27
13553;BME280;6847;48.830;9.116;2023-04-07T13:52:29;97782.91;;;14.25;48.60
13553;BME280;6847;48.830;9.116;2023-04-07T13:55:19;97791.38;;;14.24;48.42
13553;BME280;6847;48.830;9.116;2023-04-07T13:58:05;97762.84;;;14.07;48.68
13553;BME280;6847;48.830;9.116;2023-04-07T14:00:52;97791.06;;;14.25;48.51
13553;BME280;6847;48.830;9.116;2023-04-07T14:03:40;97797.34;;;14.26;48.89
13553;BME280;6847;48.830;9.116;2023-04-07T14:06:25;97795.13;;;14.28;48.73
13553;BME280;6847;48.830;9.116;2023-04-07T14:09:11;97790.78;;;14.40;48.72
13553;BME280;6847;48.830;9.116;2023-04-07T14:12:00;97794.59;;;14.53;48.70
13553;BME280;6847;48.830;9.116;2023-04-07T14:14:46;97793.72;;;14.58;48.51
13553;BME280;6847;48.830;9.116;2023-04-07T14:17:35;97792.78;;;14.62;48.57
13553;BME280;6847;48.830;9.116;2023-04-07T14:20:21;97781.34;;;14.74;48.62
13553;BME280;6847;48.830;9.116;2023-04-07T14:23:08;97795.75;;;14.88;48.50
13553;BME280;6847;48.830;9.116;2023-04-07T14:25:56;97797.25;;;14.94;48.20
13553;BME280;6847;48.830;9.116;2023-04-07T14:28:44;97795.59;;;15.07;48.51
13553;BME280;6847;48.830;9.116;2023-04-07T14:31:30;97797.94;;;15.22;48.43
13553;BME280;6847;48.830;9.116;2023-04-07T14:34:15;97796.03;;;15.45;48.21
13553;BME280;6847;48.830;9.116;2023-04-07T14:37:04;97802.13;;;15.64;48.24
13553;BME280;6847;48.830;9.116;2023-04-07T14:39:50;97804.59;;;15.74;48.14
13553;BME280;6847;48.830;9.116;2023-04-07T14:42:36;97795.50;;;15.87;48.16
13553;BME280;6847;48.830;9.116;2023-04-07T14:45:26;97806.38;;;16.10;47.98
13553;BME280;6847;48.830;9.116;2023-04-07T14:48:12;97807.09;;;16.24;47.94
13553;BME280;6847;48.830;9.116;2023-04-07T14:50:58;97799.72;;;16.33;47.91
13553;BME280;6847;48.830;9.116;2023-04-07T14:53:44;97723.41;;;15.88;47.92
13553;BME280;6847;48.830;9.116;2023-04-07T14:56:29;97800.25;;;16.44;47.84
13553;BME280;6847;48.830;9.116;2023-04-07T14:59:19;97800.09;;;16.57;47.81
13553;BME280;6847;48.830;9.116;2023-04-07T15:02:06;97722.75;;;16.40;47.80
13553;BME280;6847;48.830;9.116;2023-04-07T15:04:51;97797.63;;;17.21;47.23
13553;BME280;6847;48.830;9.116;2023-04-07T15:07:38;97799.22;;;17.39;47.41
13553;BME280;6847;48.830;9.116;2023-04-07T15:10:30;97803.56;;;17.49;47.12
13553;BME280;6847;48.830;9.116;2023-04-07T15:13:40;97801.44;;;17.55;46.89